Time;durP1;ratioP1;P1;durP2;ratioP2;P2;SDS_P1;SDS_P2;PMS_P1;PMS_P2;Temp;Humidity;BMP_temperature;BMP_pressure;BME280_temperature;BME280_humidity;BME280_pressure;Samples;Min_cycle;Max_cycle;Signal;HPM_P1;HPM_P2
2023/10/31 00:00:12;;;;;;;0.00;0.00;;;;;;;9.12;100.00;94416.81;1022123;29;20486;-74
2023/10/31 00:00:43;;;;;;;0.75;0.32;;;;;;;9.17;100.00;94429.03;1026475;28;20288;-74
2023/10/31 00:01:13;;;;;;;0.10;0.10;;;;;;;9.13;100.00;94418.34;1026572;28;20023;-72
2023/10/31 00:01:44;;;;;;;0.05;0.05;;;;;;;9.15;100.00;94411.00;1026319;28;20038;-73
2023/10/31 00:02:14;;;;;;;0.08;0.08;;;;;;;9.11;100.00;94415.22;1022731;29;20443;-74
2023/10/31 00:02:44;;;;;;;0.47;0.47;;;;;;;9.14;100.00;94421.75;1026601;28;20490;-72
2023/10/31 00:03:15;;;;;;;0.73;0.30;;;;;;;9.16;100.00;94424.84;1026468;28;20030;-73
2023/10/31 00:03:45;;;;;;;0.25;0.25;;;;;;;9.14;100.00;94419.13;1026571;28;20026;-74
2023/10/31 00:04:16;;;;;;;0.22;0.22;;;;;;;9.11;100.00;94419.69;1022714;29;20044;-73
2023/10/31 00:04:46;;;;;;;0.20;0.10;;;;;;;9.15;100.00;94424.09;1026474;28;20065;-72
2023/10/31 00:05:17;;;;;;;0.43;0.43;;;;;;;9.07;100.00;94418.72;1022650;29;20522;-73
2023/10/31 00:05:47;;;;;;;0.20;0.20;;;;;;;9.12;100.00;94416.00;1022480;29;20019;-73
2023/10/31 00:06:18;;;;;;;0.10;0.10;;;;;;;9.15;100.00;94426.69;1022556;29;20031;-73
2023/10/31 00:06:48;;;;;;;0.35;0.35;;;;;;;9.16;100.00;94428.25;1022537;28;20030;-73
2023/10/31 00:07:19;;;;;;;0.75;0.75;;;;;;;9.12;100.00;94422.03;1022686;28;20034;-73
2023/10/31 00:07:49;;;;;;;0.55;0.43;;;;;;;9.15;100.00;94431.94;1022508;29;20023;-73
2023/10/31 00:08:20;;;;;;;3.15;0.65;;;;;;;9.15;100.00;94425.91;1022687;29;20031;-74
2023/10/31 00:08:50;;;;;;;0.40;0.28;;;;;;;9.09;100.00;94422.59;1022764;28;20027;-74
2023/10/31 00:09:21;;;;;;;0.45;0.45;;;;;;;9.13;100.00;94428.03;1026657;28;20049;-73
2023/10/31 00:09:51;;;;;;;0.40;0.40;;;;;;;9.13;100.00;94428.81;1018367;29;20121;-72
2023/10/31 00:10:22;;;;;;;0.57;0.57;;;;;;;9.08;100.00;94426.25;1010403;29;20028;-73
2023/10/31 00:10:52;;;;;;;0.20;0.20;;;;;;;9.13;100.00;94434.06;1018769;29;20020;-74
2023/10/31 00:11:23;;;;;;;0.30;0.30;;;;;;;9.09;100.00;94427.06;1018878;28;20034;-72
2023/10/31 00:11:53;;;;;;;0.00;0.00;;;;;;;9.12;100.00;94435.13;1030028;28;20018;-73
2023/10/31 00:12:24;;;;;;;0.32;0.32;;;;;;;9.11;100.00;94425.69;1030567;28;20034;-74
2023/10/31 00:12:54;;;;;;;0.00;0.00;;;;;;;9.10;100.00;94429.38;1026622;28;20027;-72
2023/10/31 00:13:24;;;;;;;0.20;0.20;;;;;;;9.04;100.00;94425.28;1024177;28;20018;-74
2023/10/31 00:13:55;;;;;;;0.30;0.30;;;;;;;9.10;100.00;94434.63;1018507;29;20495;-72
2023/10/31 00:14:25;;;;;;;1.48;1.38;;;;;;;9.10;100.00;94432.00;1018674;29;20027;-73
2023/10/31 00:14:56;;;;;;;0.10;0.10;;;;;;;9.09;100.00;94429.69;1026594;28;20031;-73
2023/10/31 00:15:28;;;;;;;0.00;0.00;;;;;;;9.09;100.00;94435.69;1026739;28;20037;-72
2023/10/31 00:15:59;;;;;;;0.00;0.00;;;;;;;8.97;100.00;94417.03;1030263;28;20029;-74
2023/10/31 00:16:29;;;;;;;0.05;0.05;;;;;;;9.06;100.00;94433.63;1022974;28;21089;-72
2023/10/31 00:17:00;;;;;;;2.83;1.33;;;;;;;9.00;100.00;94428.75;1022727;28;20023;-75
2023/10/31 00:17:30;;;;;;;0.20;0.20;;;;;;;9.07;100.00;94429.94;1024801;28;20042;-72
2023/10/31 00:18:01;;;;;;;0.70;0.57;;;;;;;8.99;100.00;94422.75;1026410;28;20110;-73
2023/10/31 00:18:31;;;;;;;0.10;0.10;;;;;;;9.05;100.00;94434.69;1020501;29;20027;-72
2023/10/31 00:19:02;;;;;;;0.00;0.00;;;;;;;9.05;100.00;94439.91;1022749;28;20027;-74
2023/10/31 00:19:32;;;;;;;0.52;0.52;;;;;;;9.02;100.00;94432.66;1026568;28;20027;-73
2023/10/31 00:20:03;;;;;;;0.10;0.10;;;;;;;8.92;100.00;94422.31;1020887;29;20659;-73
2023/10/31 00:20:34;;;;;;;0.08;0.08;;;;;;;9.02;100.00;94443.13;1018549;29;20028;-72
2023/10/31 00:21:05;;;;;;;0.00;0.00;;;;;;;9.01;100.00;94444.16;1018509;29;20087;-72
2023/10/31 00:21:36;;;;;;;0.47;0.47;;;;;;;9.02;100.00;94442.31;1026129;28;20341;-73
2023/10/31 00:22:06;;;;;;;0.45;0.45;;;;;;;9.02;100.00;94437.09;1030194;28;20510;-73
2023/10/31 00:22:37;;;;;;;0.22;0.22;;;;;;;8.99;100.00;94438.47;1027748;28;20046;-75
2023/10/31 00:23:07;;;;;;;0.00;0.00;;;;;;;9.01;100.00;94443.41;1021436;28;20042;-73
2023/10/31 00:23:47;;;;;;;0.65;0.50;;;;;;;8.94;100.00;94441.91;1023435;28;20634;-72
2023/10/31 00:24:18;;;;;;;1.17;0.32;;;;;;;8.99;100.00;94446.31;1026420;28;20062;-73
2023/10/31 00:24:48;;;;;;;0.00;0.00;;;;;;;9.00;100.00;94439.22;1023926;28;20207;-72
2023/10/31 00:25:19;;;;;;;0.00;0.00;;;;;;;8.98;100.00;94448.13;1022499;29;20038;-73
2023/10/31 00:25:50;;;;;;;0.47;0.43;;;;;;;8.97;100.00;94445.81;1016849;29;20202;-73
2023/10/31 00:26:20;;;;;;;0.60;0.60;;;;;;;8.90;100.00;94434.91;1019084;28;20040;-74
2023/10/31 00:26:51;;;;;;;0.43;0.30;;;;;;;8.98;100.00;94442.13;1030623;28;20034;-72
2023/10/31 00:27:21;;;;;;;0.00;0.00;;;;;;;8.90;100.00;94437.53;1030741;28;20581;-73
2023/10/31 00:27:52;;;;;;;0.00;0.00;;;;;;;8.96;100.00;94445.03;1026587;28;20117;-74
2023/10/31 00:28:22;;;;;;;0.38;0.30;;;;;;;8.94;100.00;94448.97;1026617;28;20074;-74
2023/10/31 00:28:53;;;;;;;0.13;0.13;;;;;;;8.93;100.00;94445.59;1022489;29;20121;-74
2023/10/31 00:29:23;;;;;;;1.00;1.00;;;;;;;8.95;100.00;94447.91;1022542;28;20039;-72
2023/10/31 00:29:54;;;;;;;0.00;0.00;;;;;;;8.86;100.00;94444.41;1026559;28;20046;-75
2023/10/31 00:30:24;;;;;;;0.15;0.15;;;;;;;8.93;100.00;94450.81;1021862;29;20106;-73
2023/10/31 00:30:55;;;;;;;0.00;0.00;;;;;;;8.92;100.00;94451.88;1022525;28;20032;-74
2023/10/31 00:31:26;;;;;;;0.00;0.00;;;;;;;8.88;100.00;94448.25;1026874;28;20035;-73
2023/10/31 00:31:56;;;;;;;0.52;0.52;;;;;;;8.93;100.00;94453.44;1026632;28;20805;-77
2023/10/31 00:32:27;;;;;;;0.00;0.00;;;;;;;8.93;100.00;94456.06;1026544;28;20073;-72
2023/10/31 00:32:57;;;;;;;0.00;0.00;;;;;;;8.88;100.00;94452.72;1026551;28;20553;-73
2023/10/31 00:33:27;;;;;;;2.35;0.38;;;;;;;8.89;100.00;94454.31;1022631;28;20046;-73
2023/10/31 00:33:58;;;;;;;0.00;0.00;;;;;;;8.90;100.00;94451.38;1026520;28;20557;-74
2023/10/31 00:34:29;;;;;;;1.65;0.75;;;;;;;8.88;100.00;94457.97;1022569;29;20106;-72
2023/10/31 00:34:59;;;;;;;0.00;0.00;;;;;;;8.84;100.00;94441.28;1018467;29;20472;-73
2023/10/31 00:35:30;;;;;;;0.00;0.00;;;;;;;8.90;100.00;94455.84;1022373;29;20495;-73
2023/10/31 00:36:01;;;;;;;0.65;0.65;;;;;;;8.80;100.00;94438.44;1026506;28;20489;-73
2023/10/31 00:36:32;;;;;;;0.32;0.32;;;;;;;8.91;100.00;94458.16;1018720;29;20275;-72
2023/10/31 00:37:02;;;;;;;0.00;0.00;;;;;;;8.90;100.00;94455.84;1018254;29;20102;-72
2023/10/31 00:37:33;;;;;;;0.65;0.65;;;;;;;8.89;100.00;94459.53;1022705;28;20019;-72
2023/10/31 00:38:03;;;;;;;0.10;0.10;;;;;;;8.84;100.00;94449.13;1014868;29;20543;-74
2023/10/31 00:38:34;;;;;;;0.10;0.10;;;;;;;8.80;100.00;94442.91;1022588;29;20027;-72
2023/10/31 00:39:04;;;;;;;1.13;1.00;;;;;;;8.78;100.00;94445.78;1025828;28;20109;-73
2023/10/31 00:39:34;;;;;;;0.00;0.00;;;;;;;8.79;100.00;94446.59;1026698;28;20038;-73
2023/10/31 00:40:07;;;;;;;0.20;0.20;;;;;;;8.77;100.00;94446.09;1029812;28;20026;-72
2023/10/31 00:40:37;;;;;;;0.00;0.00;;;;;;;8.82;100.00;94459.88;1026444;28;20034;-73
2023/10/31 00:41:07;;;;;;;0.03;0.03;;;;;;;8.81;100.00;94452.31;1018489;29;20271;-73
2023/10/31 00:41:39;;;;;;;0.13;0.13;;;;;;;8.80;100.00;94463.84;1018706;29;20079;-71
2023/10/31 00:42:09;;;;;;;0.03;0.03;;;;;;;8.73;100.00;94441.41;1022677;28;20079;-74
2023/10/31 00:42:41;;;;;;;0.68;0.68;;;;;;;8.78;100.00;94451.03;1026577;28;20842;-73
2023/10/31 00:43:12;;;;;;;0.00;0.00;;;;;;;8.80;100.00;94458.59;1018493;29;20110;-73
2023/10/31 00:43:42;;;;;;;0.20;0.20;;;;;;;8.78;100.00;94461.47;1014592;29;20290;-72
2023/10/31 00:44:13;;;;;;;0.05;0.05;;;;;;;8.68;100.00;94449.31;1018434;29;20023;-73
2023/10/31 00:44:44;;;;;;;0.20;0.20;;;;;;;8.78;100.00;94458.09;1018464;29;20115;-74
2023/10/31 00:45:14;;;;;;;0.00;0.00;;;;;;;8.72;100.00;94455.56;1018445;29;20397;-74
2023/10/31 00:45:45;;;;;;;0.00;0.00;;;;;;;8.77;100.00;94467.00;1022336;28;20034;-74
2023/10/31 00:46:15;;;;;;;0.30;0.30;;;;;;;8.73;100.00;94472.81;1018683;29;20488;-72
2023/10/31 00:46:46;;;;;;;0.00;0.00;;;;;;;8.73;100.00;94464.94;1014468;29;20028;-73
2023/10/31 00:47:17;;;;;;;0.00;0.00;;;;;;;8.71;100.00;94468.91;1010558;29;20033;-75
2023/10/31 00:47:48;;;;;;;0.00;0.00;;;;;;;8.74;100.00;94468.34;1018774;29;20623;-72
2023/10/31 00:48:19;;;;;;;0.00;0.00;;;;;;;8.64;100.00;94458.78;1022751;28;20275;-73
2023/10/31 00:48:49;;;;;;;0.00;0.00;;;;;;;8.72;100.00;94466.03;1018911;29;20028;-74
2023/10/31 00:49:20;;;;;;;0.00;0.00;;;;;;;8.73;100.00;94472.81;1022208;29;20077;-74
2023/10/31 00:49:50;;;;;;;0.13;0.13;;;;;;;8.66;100.00;94469.75;1022382;28;20019;-73
2023/10/31 00:50:20;;;;;;;0.00;0.00;;;;;;;8.69;100.00;94471.81;1022635;28;20039;-72
2023/10/31 00:50:51;;;;;;;0.00;0.00;;;;;;;8.73;100.00;94480.66;1023111;28;20438;-73
2023/10/31 00:51:21;;;;;;;0.15;0.15;;;;;;;8.71;100.00;94474.91;1023080;29;20027;-74
2023/10/31 00:51:52;;;;;;;0.35;0.10;;;;;;;8.71;100.00;94474.91;1023341;28;20035;-73
2023/10/31 00:52:22;;;;;;;0.03;0.03;;;;;;;8.71;100.00;94471.53;1027224;28;20499;-72
2023/10/31 00:52:53;;;;;;;0.00;0.00;;;;;;;8.67;100.00;94470.53;1035359;28;20089;-72
2023/10/31 00:53:23;;;;;;;0.08;0.08;;;;;;;8.65;100.00;94470.81;1035361;28;20030;-73
2023/10/31 00:53:53;;;;;;;0.00;0.00;;;;;;;8.64;100.00;94469.25;1027162;28;20554;-73
2023/10/31 00:54:24;;;;;;;0.10;0.10;;;;;;;8.72;100.00;94486.94;1023029;29;20491;-73
2023/10/31 00:54:54;;;;;;;0.00;0.00;;;;;;;8.69;100.00;94484.88;1023257;29;20028;-72
2023/10/31 00:55:25;;;;;;;0.22;0.22;;;;;;;8.68;100.00;94480.69;1023223;28;20094;-75
2023/10/31 00:55:55;;;;;;;0.00;0.00;;;;;;;8.68;100.00;94478.09;1027108;28;20034;-74
2023/10/31 00:56:26;;;;;;;0.15;0.05;;;;;;;8.66;100.00;94482.06;1027302;28;20034;-74
2023/10/31 00:56:56;;;;;;;0.00;0.00;;;;;;;8.67;100.00;94484.38;1023186;28;20027;-75
2023/10/31 00:57:27;;;;;;;0.00;0.00;;;;;;;8.64;100.00;94478.94;1027220;28;20651;-74
2023/10/31 00:57:58;;;;;;;0.47;0.15;;;;;;;8.62;100.00;94470.63;1030909;28;20100;-75
2023/10/31 00:58:28;;;;;;;0.00;0.00;;;;;;;8.66;100.00;94477.59;1035297;28;20297;-73
2023/10/31 00:58:59;;;;;;;0.80;0.63;;;;;;;8.66;100.00;94477.59;1031401;28;20026;-74
2023/10/31 00:59:29;;;;;;;0.00;0.00;;;;;;;8.66;100.00;94476.84;1027441;28;20042;-75
2023/10/31 01:00:00;;;;;;;0.00;0.00;;;;;;;8.59;100.00;94473.78;1030465;28;20031;-72
2023/10/31 01:00:31;;;;;;;0.00;0.00;;;;;;;8.60;100.00;94468.25;1031290;28;20027;-72
2023/10/31 01:01:02;;;;;;;0.10;0.10;;;;;;;8.63;100.00;94478.16;1027430;28;20066;-75
2023/10/31 01:01:32;;;;;;;0.15;0.15;;;;;;;8.64;100.00;94484.94;1027192;28;20316;-72
2023/10/31 01:02:03;;;;;;;0.35;0.35;;;;;;;8.64;100.00;94478.94;1026674;28;20497;-74
2023/10/31 01:02:33;;;;;;;0.10;0.10;;;;;;;8.60;100.00;94470.09;1023234;29;20031;-75
2023/10/31 01:03:04;;;;;;;0.10;0.10;;;;;;;8.57;100.00;94463.59;1023143;29;20034;-73
2023/10/31 01:03:34;;;;;;;0.00;0.00;;;;;;;8.64;100.00;94479.72;1021530;28;20043;-73
2023/10/31 01:04:05;;;;;;;0.10;0.10;;;;;;;8.63;100.00;94466.94;1022907;29;20039;-73
2023/10/31 01:04:38;;;;;;;0.20;0.10;;;;;;;8.61;100.00;94475.03;1023128;29;20038;-74
2023/10/31 01:05:08;;;;;;;0.00;0.00;;;;;;;8.55;100.00;94470.97;1024193;28;20031;-73
2023/10/31 01:05:39;;;;;;;0.00;0.00;;;;;;;8.61;100.00;94472.44;1023548;28;20271;-73
2023/10/31 01:06:09;;;;;;;0.00;0.00;;;;;;;8.60;100.00;94476.09;1027120;28;20034;-73
2023/10/31 01:06:43;;;;;;;0.00;0.00;;;;;;;8.61;100.00;94471.66;1027276;28;20034;-75
2023/10/31 01:07:16;;;;;;;1.67;0.20;;;;;;;8.59;100.00;94466.72;1027776;28;20027;-74
2023/10/31 01:07:47;;;;;;;0.25;0.25;;;;;;;8.60;100.00;94475.34;1024027;28;20313;-74
2023/10/31 01:08:17;;;;;;;0.00;0.00;;;;;;;8.54;100.00;94458.91;1023122;28;20281;-74
2023/10/31 01:08:48;;;;;;;0.00;0.00;;;;;;;8.59;100.00;94469.31;1019288;29;20510;-73
2023/10/31 01:09:18;;;;;;;0.00;0.00;;;;;;;8.61;100.00;94469.81;1019743;29;20437;-74
2023/10/31 01:09:49;;;;;;;0.00;0.00;;;;;;;8.61;100.00;94475.03;1027096;28;20027;-74
2023/10/31 01:10:19;;;;;;;0.00;0.00;;;;;;;8.61;100.00;94469.03;1030736;28;20504;-73
2023/10/31 01:10:49;;;;;;;0.30;0.20;;;;;;;8.59;100.00;94466.72;1035662;28;20109;-74
2023/10/31 01:11:20;;;;;;;0.00;0.00;;;;;;;8.58;100.00;94472.97;1031301;28;20030;-73
2023/10/31 01:11:50;;;;;;;0.00;0.00;;;;;;;8.55;100.00;94460.50;1030933;28;20034;-74
2023/10/31 01:12:21;;;;;;;0.00;0.00;;;;;;;8.62;100.00;94470.63;1031255;28;20517;-73
2023/10/31 01:12:52;;;;;;;0.00;0.00;;;;;;;8.56;100.00;94469.88;1031251;28;20402;-73
2023/10/31 01:13:22;;;;;;;0.00;0.00;;;;;;;8.56;100.00;94469.88;1035221;28;20057;-72
2023/10/31 01:13:53;;;;;;;0.00;0.00;;;;;;;8.58;100.00;94469.59;1031311;28;20406;-72
2023/10/31 01:14:23;;;;;;;0.00;0.00;;;;;;;8.52;100.00;94461.06;1031343;28;20512;-72
2023/10/31 01:14:54;;;;;;;0.00;0.00;;;;;;;8.48;100.00;94460.03;1022956;29;20085;-75
2023/10/31 01:15:25;;;;;;;0.00;0.00;;;;;;;8.55;100.00;94470.97;1023363;29;20043;-75
2023/10/31 01:15:55;;;;;;;0.00;0.00;;;;;;;8.50;100.00;94463.94;1023113;29;20274;-74
2023/10/31 01:16:26;;;;;;;0.00;0.00;;;;;;;8.53;100.00;94473.06;1023567;28;20035;-74
2023/10/31 01:16:56;;;;;;;0.00;0.00;;;;;;;8.58;100.00;94472.22;1020946;28;20036;-74
2023/10/31 01:17:27;;;;;;;0.77;0.28;;;;;;;8.57;100.00;94479.28;1025755;28;20666;-77
2023/10/31 01:17:57;;;;;;;0.25;0.25;;;;;;;8.57;100.00;94474.06;1023071;28;20102;-74
2023/10/31 01:18:28;;;;;;;0.00;0.00;;;;;;;8.51;100.00;94467.31;1027151;28;20034;-74
2023/10/31 01:18:58;;;;;;;0.00;0.00;;;;;;;8.54;100.00;94474.59;1031258;28;20462;-77
2023/10/31 01:19:28;;;;;;;0.00;0.00;;;;;;;8.50;100.00;94463.94;1027140;28;20455;-74
2023/10/31 01:19:59;;;;;;;0.00;0.00;;;;;;;8.57;100.00;94481.91;1018984;29;20028;-74
2023/10/31 01:20:30;;;;;;;0.00;0.00;;;;;;;8.58;100.00;94480.06;1024348;28;20035;-74
2023/10/31 01:21:00;;;;;;;0.00;0.00;;;;;;;8.52;100.00;94471.50;1027062;28;20023;-73
2023/10/31 01:21:31;;;;;;;0.00;0.00;;;;;;;8.56;100.00;94482.97;1023398;28;20035;-73
2023/10/31 01:22:01;;;;;;;2.08;0.52;;;;;;;8.54;100.00;94479.06;1027070;28;20605;-73
2023/10/31 01:22:32;;;;;;;0.00;0.00;;;;;;;8.56;100.00;94477.72;1031107;28;20092;-72
2023/10/31 01:23:02;;;;;;;0.00;0.00;;;;;;;8.55;100.00;94478.81;1027083;28;20502;-72
2023/10/31 01:23:33;;;;;;;0.65;0.22;;;;;;;8.56;100.00;94479.56;1027113;28;20438;-72
2023/10/31 01:24:04;;;;;;;0.00;0.00;;;;;;;8.57;100.00;94479.28;1027167;28;20026;-74
2023/10/31 01:24:34;;;;;;;0.00;0.00;;;;;;;8.57;100.00;94473.28;1023471;28;20442;-74
2023/10/31 01:25:05;;;;;;;0.32;0.32;;;;;;;8.56;100.00;94477.72;1023044;28;20023;-75
2023/10/31 01:25:36;;;;;;;0.05;0.05;;;;;;;8.55;100.00;94484.03;1027281;28;20045;-73
2023/10/31 01:26:06;;;;;;;0.00;0.00;;;;;;;8.55;100.00;94478.81;1027413;28;20075;-74
2023/10/31 01:26:36;;;;;;;0.10;0.10;;;;;;;8.46;100.00;94467.41;1031350;28;20066;-73
2023/10/31 01:27:07;;;;;;;0.00;0.00;;;;;;;8.55;100.00;94481.41;1035216;28;20029;-74
2023/10/31 01:27:37;;;;;;;0.30;0.30;;;;;;;8.55;100.00;94478.00;1027171;28;20031;-72
2023/10/31 01:28:08;;;;;;;0.43;0.08;;;;;;;8.55;100.00;94480.59;1031132;28;20027;-73
2023/10/31 01:28:38;;;;;;;0.03;0.03;;;;;;;8.48;100.00;94466.06;1031354;28;20022;-73
2023/10/31 01:29:09;;;;;;;0.00;0.00;;;;;;;8.47;100.00;94463.72;1031214;28;20049;-72
2023/10/31 01:29:39;;;;;;;0.00;0.00;;;;;;;8.55;100.00;94476.19;1027143;28;20046;-71
2023/10/31 01:30:10;;;;;;;0.10;0.10;;;;;;;8.50;100.00;94468.38;1026148;28;20042;-72
2023/10/31 01:30:41;;;;;;;0.00;0.00;;;;;;;8.56;100.00;94482.97;1019265;29;20027;-73
2023/10/31 01:31:11;;;;;;;0.00;0.00;;;;;;;8.55;100.00;94485.84;1022959;29;20779;-72
2023/10/31 01:31:42;;;;;;;0.57;0.20;;;;;;;8.55;100.00;94478.81;1023113;28;20426;-73
2023/10/31 01:32:12;;;;;;;0.00;0.00;;;;;;;8.55;100.00;94480.59;1026909;28;20019;-73
2023/10/31 01:32:43;;;;;;;0.20;0.10;;;;;;;8.56;100.00;94482.97;1027247;28;20644;-74
2023/10/31 01:33:13;;;;;;;0.20;0.20;;;;;;;8.55;100.00;94486.63;1022972;29;20030;-73
2023/10/31 01:33:44;;;;;;;0.00;0.00;;;;;;;8.55;100.00;94491.88;1019166;28;20084;-74
2023/10/31 01:34:14;;;;;;;0.03;0.03;;;;;;;8.54;100.00;94486.91;1027132;28;20031;-73
2023/10/31 01:34:45;;;;;;;0.00;0.00;;;;;;;8.44;100.00;94479.97;1026995;28;20565;-74
2023/10/31 01:35:15;;;;;;;0.00;0.00;;;;;;;8.48;100.00;94480.94;1026771;28;20038;-74
2023/10/31 01:35:45;;;;;;;0.00;0.00;;;;;;;8.54;100.00;94492.91;1019269;29;20175;-73
2023/10/31 01:36:18;;;;;;;0.00;0.00;;;;;;;8.45;100.00;94477.09;1019285;29;20055;-74
2023/10/31 01:36:48;;;;;;;0.00;0.00;;;;;;;8.47;100.00;94479.41;1019523;29;20118;-73
2023/10/31 01:37:21;;;;;;;0.10;0.10;;;;;;;8.55;100.00;94497.09;1019304;29;20275;-73
2023/10/31 01:37:52;;;;;;;0.20;0.20;;;;;;;8.50;100.00;94479.63;1023242;29;20114;-74
2023/10/31 01:38:23;;;;;;;2.00;0.90;;;;;;;8.49;100.00;94487.75;1023157;28;20355;-72
2023/10/31 01:38:53;;;;;;;0.30;0.30;;;;;;;8.53;100.00;94493.97;1018999;29;20179;-73
2023/10/31 01:39:24;;;;;;;0.00;0.00;;;;;;;8.54;100.00;94489.53;1019155;29;20439;-74
2023/10/31 01:39:54;;;;;;;0.10;0.10;;;;;;;8.45;100.00;94476.28;1023032;29;20103;-72
2023/10/31 01:40:24;;;;;;;0.00;0.00;;;;;;;8.53;100.00;94493.19;1022664;28;20035;-74
2023/10/31 01:40:55;;;;;;;0.08;0.08;;;;;;;8.54;100.00;94494.75;1023009;29;20081;-75
2023/10/31 01:41:25;;;;;;;0.00;0.00;;;;;;;8.53;100.00;94487.97;1027094;28;20035;-72
2023/10/31 01:41:56;;;;;;;0.55;0.30;;;;;;;8.52;100.00;94492.44;1026959;28;20026;-72
2023/10/31 01:42:26;;;;;;;0.08;0.08;;;;;;;8.52;100.00;94497.66;1019032;28;20032;-75
2023/10/31 01:42:57;;;;;;;0.00;0.00;;;;;;;8.54;100.00;94489.53;1027044;28;20022;-73
2023/10/31 01:43:34;;;;;;;0.00;0.00;;;;;;;8.48;100.00;94491.41;1027130;28;20037;-73
2023/10/31 01:44:04;;;;;;;0.52;0.43;;;;;;;8.55;100.00;94493.69;1031853;28;20030;-73
2023/10/31 01:44:35;;;;;;;0.00;0.00;;;;;;;8.47;100.00;94479.41;1035245;28;20308;-73
2023/10/31 01:45:06;;;;;;;0.00;0.00;;;;;;;8.55;100.00;94491.88;1031408;28;20525;-72
2023/10/31 01:45:37;;;;;;;0.17;0.17;;;;;;;8.54;100.00;94492.13;1026941;28;20019;-72
2023/10/31 01:46:07;;;;;;;0.00;0.00;;;;;;;8.49;100.00;94482.53;1019248;29;20381;-72
2023/10/31 01:46:38;;;;;;;0.00;0.00;;;;;;;8.57;100.00;94492.34;1019295;29;20438;-72
2023/10/31 01:47:08;;;;;;;0.00;0.00;;;;;;;8.56;100.00;94485.56;1019023;29;20040;-72
2023/10/31 01:47:39;;;;;;;0.05;0.05;;;;;;;8.57;100.00;94489.75;1019309;29;20032;-73
2023/10/31 01:48:09;;;;;;;0.00;0.00;;;;;;;8.53;100.00;94483.50;1023101;28;20031;-73
2023/10/31 01:48:40;;;;;;;0.00;0.00;;;;;;;8.55;100.00;94491.88;1031227;28;20022;-72
2023/10/31 01:49:10;;;;;;;0.00;0.00;;;;;;;8.49;100.00;94482.53;1031005;28;20030;-72
2023/10/31 01:49:40;;;;;;;0.10;0.10;;;;;;;8.47;100.00;94484.63;1027004;28;20026;-73
2023/10/31 01:50:11;;;;;;;4.57;0.40;;;;;;;8.51;100.00;94496.06;1026620;28;20037;-75
2023/10/31 01:50:42;;;;;;;0.00;0.00;;;;;;;8.54;100.00;94507.81;1019154;29;20099;-73
2023/10/31 01:51:12;;;;;;;0.00;0.00;;;;;;;8.52;100.00;94508.13;1015053;29;20024;-74
2023/10/31 01:51:43;;;;;;;0.00;0.00;;;;;;;8.54;100.00;94505.22;1018945;29;20032;-72
2023/10/31 01:52:13;;;;;;;1.17;0.10;;;;;;;8.47;100.00;94495.09;1022733;29;20027;-73
2023/10/31 01:52:44;;;;;;;0.00;0.00;;;;;;;8.46;100.00;94498.78;1019080;29;20462;-74
2023/10/31 01:53:14;;;;;;;0.10;0.10;;;;;;;8.46;100.00;94494.31;1023191;29;20023;-73
2023/10/31 01:53:45;;;;;;;0.00;0.00;;;;;;;8.54;100.00;94505.22;1030581;28;20030;-73
2023/10/31 01:54:15;;;;;;;0.00;0.00;;;;;;;8.52;100.00;94502.88;1024432;28;20038;-73
2023/10/31 01:54:46;;;;;;;0.00;0.00;;;;;;;8.51;100.00;94498.69;1019421;29;20031;-76
2023/10/31 01:55:16;;;;;;;0.00;0.00;;;;;;;8.46;100.00;94498.78;1017888;29;20484;-73
2023/10/31 01:55:47;;;;;;;0.00;0.00;;;;;;;8.53;100.00;94499.19;1021640;29;20027;-72
2023/10/31 01:56:17;;;;;;;0.10;0.10;;;;;;;8.52;100.00;94502.88;1019128;29;20036;-75
2023/10/31 01:56:50;;;;;;;0.00;0.00;;;;;;;8.44;100.00;94499.03;1023072;29;20510;-72
2023/10/31 01:57:21;;;;;;;0.03;0.03;;;;;;;8.53;100.00;94504.44;1023214;29;20528;-73
2023/10/31 01:57:51;;;;;;;0.10;0.10;;;;;;;8.48;100.00;94496.63;1023357;28;20313;-74
2023/10/31 01:58:25;;;;;;;0.08;0.08;;;;;;;8.43;100.00;94489.63;1019611;29;20040;-74
2023/10/31 01:58:55;;;;;;;0.00;0.00;;;;;;;8.45;100.00;94492.75;1024040;28;20031;-73
2023/10/31 01:59:26;;;;;;;0.10;0.10;;;;;;;8.52;100.00;94502.88;1023179;29;20282;-74
2023/10/31 01:59:56;;;;;;;0.10;0.10;;;;;;;8.52;100.00;94510.72;1027431;28;20026;-77
2023/10/31 02:00:27;;;;;;;0.00;0.00;;;;;;;8.43;100.00;94489.63;1022537;29;20027;-74
2023/10/31 02:00:58;;;;;;;0.32;0.30;;;;;;;8.48;100.00;94501.88;1019046;29;20468;-72
2023/10/31 02:01:28;;;;;;;0.00;0.00;;;;;;;8.36;100.00;94483.94;1026560;28;20027;-74
2023/10/31 02:01:59;;;;;;;0.00;0.00;;;;;;;8.48;100.00;94501.88;1022391;29;20093;-73
2023/10/31 02:02:29;;;;;;;0.30;0.22;;;;;;;8.43;100.00;94494.09;1019254;29;20140;-72
2023/10/31 02:03:00;;;;;;;0.10;0.10;;;;;;;8.44;100.00;94496.41;1019294;29;20038;-75
2023/10/31 02:03:30;;;;;;;0.00;0.00;;;;;;;8.53;100.00;94514.88;1019105;29;20443;-72
2023/10/31 02:04:02;;;;;;;0.00;0.00;;;;;;;8.52;100.00;94510.72;1019085;29;20043;-73
2023/10/31 02:04:32;;;;;;;0.00;0.00;;;;;;;8.52;100.00;94505.50;1019095;29;20118;-75
2023/10/31 02:05:03;;;;;;;0.00;0.00;;;;;;;8.53;100.00;94509.66;1022722;28;20462;-74
2023/10/31 02:05:34;;;;;;;0.80;0.73;;;;;;;8.43;100.00;94491.47;1023452;28;20027;-73
2023/10/31 02:06:05;;;;;;;0.00;0.00;;;;;;;8.39;100.00;94482.66;1023056;29;20186;-73
2023/10/31 02:06:35;;;;;;;0.00;0.00;;;;;;;8.53;100.00;94506.28;1022841;29;20035;-74
2023/10/31 02:07:05;;;;;;;0.00;0.00;;;;;;;8.46;100.00;94502.16;1023164;29;20114;-74
2023/10/31 02:07:36;;;;;;;0.00;0.00;;;;;;;8.48;100.00;94507.09;1031227;28;20037;-73
2023/10/31 02:08:09;;;;;;;0.15;0.13;;;;;;;8.51;100.00;94511.75;1023014;29;20039;-74
2023/10/31 02:08:40;;;;;;;1.38;0.43;;;;;;;8.45;100.00;94500.59;1027001;28;20076;-73
2023/10/31 02:09:10;;;;;;;0.00;0.00;;;;;;;8.45;100.00;94500.59;1023083;29;20281;-74
2023/10/31 02:09:41;;;;;;;0.00;0.00;;;;;;;8.51;100.00;94514.38;1019157;28;20753;-75
2023/10/31 02:10:11;;;;;;;0.00;0.00;;;;;;;8.52;100.00;94517.75;1026026;28;20037;-73
2023/10/31 02:10:42;;;;;;;0.00;0.00;;;;;;;8.52;100.00;94513.34;1027190;28;20030;-74
2023/10/31 02:11:12;;;;;;;0.00;0.00;;;;;;;8.52;100.00;94513.34;1027066;28;20529;-73
2023/10/31 02:11:43;;;;;;;0.00;0.00;;;;;;;8.46;100.00;94507.38;1022843;28;20035;-72
2023/10/31 02:12:34;;;;;;;0.00;0.00;;;;;;;8.54;100.00;94515.66;1019141;29;20032;-74
2023/10/31 02:13:14;;;;;;;0.50;0.50;;;;;;;8.53;100.00;94520.13;1019073;29;20422;-74
2023/10/31 02:13:44;;;;;;;0.00;0.00;;;;;;;8.53;100.00;94516.72;1023234;28;20271;-74
2023/10/31 02:14:15;;;;;;;0.00;0.00;;;;;;;8.51;100.00;94511.75;1035072;28;20033;-73
2023/10/31 02:14:45;;;;;;;0.00;0.00;;;;;;;8.54;100.00;94519.06;1029649;28;20030;-72
2023/10/31 02:15:16;;;;;;;0.10;0.10;;;;;;;8.52;100.00;94518.56;1026808;28;20165;-75
2023/10/31 02:15:46;;;;;;;0.00;0.00;;;;;;;8.52;100.00;94523.00;1022937;29;20027;-74
2023/10/31 02:16:17;;;;;;;5.47;1.00;;;;;;;8.50;100.00;94518.84;1019225;29;20544;-73
2023/10/31 02:16:47;;;;;;;0.28;0.28;;;;;;;8.33;100.00;94494.19;1016883;29;20613;-75
2023/10/31 02:17:18;;;;;;;0.00;0.00;;;;;;;8.41;100.00;94506.66;1019099;29;20035;-74
2023/10/31 02:17:48;;;;;;;0.08;0.08;;;;;;;8.43;100.00;94504.56;1023152;29;20086;-74
2023/10/31 02:18:19;;;;;;;0.10;0.10;;;;;;;8.48;100.00;94513.13;1019204;29;20563;-73
2023/10/31 02:18:49;;;;;;;0.22;0.22;;;;;;;8.47;100.00;94519.38;1015366;29;20028;-74
2023/10/31 02:19:20;;;;;;;0.00;0.00;;;;;;;8.36;100.00;94493.63;1023082;29;20416;-73
2023/10/31 02:19:51;;;;;;;0.00;0.00;;;;;;;8.52;100.00;94529.03;1023028;29;20088;-77
2023/10/31 02:20:21;;;;;;;0.00;0.00;;;;;;;8.52;100.00;94525.63;1018791;28;20096;-73
2023/10/31 02:20:52;;;;;;;0.10;0.10;;;;;;;8.51;100.00;94522.22;1023030;29;20042;-75
2023/10/31 02:21:22;;;;;;;0.00;0.00;;;;;;;8.48;100.00;94517.56;1026904;28;20486;-75
2023/10/31 02:21:53;;;;;;;0.00;0.00;;;;;;;8.50;100.00;94521.44;1024780;28;20030;-75
2023/10/31 02:22:23;;;;;;;0.30;0.22;;;;;;;8.43;100.00;94509.78;1018392;29;20035;-73
2023/10/31 02:22:53;;;;;;;0.00;0.00;;;;;;;8.46;100.00;94514.44;1018334;29;20067;-73
2023/10/31 02:23:24;;;;;;;0.10;0.10;;;;;;;8.51;100.00;94522.22;1018135;29;20035;-73
2023/10/31 02:24:04;;;;;;;0.65;0.65;;;;;;;8.50;100.00;94512.84;1023387;28;20031;-72
2023/10/31 02:24:34;;;;;;;0.60;0.32;;;;;;;8.51;100.00;94517.00;1024850;28;20035;-75
2023/10/31 02:25:16;;;;;;;0.00;0.00;;;;;;;8.51;100.00;94522.22;1027024;28;20039;-75